Time;durP1;ratioP1;P1;durP2;ratioP2;P2;SDS_P1;SDS_P2;PMS_P1;PMS_P2;Temp;Humidity;BMP_temperature;BMP_pressure;BME280_temperature;BME280_humidity;BME280_pressure;Samples;Min_cycle;Max_cycle;Signal;HPM_P1;HPM_P2
2022/07/23 00:00:48;;;;;;;7.63;3.00;;;;;;;21.89;100.00;101739.75;5081160;28;20063;-52
2022/07/23 00:03:14;;;;;;;9.67;3.57;;;;;;;22.02;100.00;101738.56;5080292;28;20029;-53
2022/07/23 00:05:40;;;;;;;8.02;3.72;;;;;;;22.00;100.00;101734.47;5081534;28;20403;-50
2022/07/23 00:08:06;;;;;;;7.47;3.75;;;;;;;22.84;100.00;101739.88;5077258;28;20036;-54
2022/07/23 00:10:32;;;;;;;7.38;4.18;;;;;;;22.21;100.00;101738.28;5079516;28;20029;-52
2022/07/23 00:12:58;;;;;;;7.73;3.93;;;;;;;22.20;100.00;101751.09;5080593;28;20047;-51
2022/07/23 00:15:24;;;;;;;10.23;3.78;;;;;;;22.16;100.00;101749.94;5077135;28;20033;-50
2022/07/23 00:17:49;;;;;;;5.30;3.55;;;;;;;22.13;100.00;101755.06;5077063;28;20029;-53
2022/07/23 00:20:15;;;;;;;8.77;3.40;;;;;;;22.01;100.00;101742.38;5076957;28;20079;-54
2022/07/23 00:22:51;;;;;;;7.90;3.87;;;;;;;22.45;100.00;101748.94;5075711;28;20101;-49
2022/07/23 00:25:17;;;;;;;6.90;4.00;;;;;;;22.43;100.00;101743.75;5078601;28;20031;-54
2022/07/23 00:27:43;;;;;;;;;;;;;;;22.48;100.00;101740.28;5078639;28;20096;-50
2022/07/23 00:30:09;;;;;;;6.47;3.47;;;;;;;23.37;100.00;101739.31;5073839;28;19919;-49
2022/07/23 00:33:06;;;;;;;7.17;3.50;;;;;;;23.56;100.00;101742.44;5075379;28;20045;-50
2022/07/23 00:35:39;;;;;;;10.53;3.93;;;;;;;23.08;100.00;101736.84;5064526;28;20055;-53
2022/07/23 00:38:04;;;;;;;5.93;3.90;;;;;;;23.07;100.00;101736.00;5075001;28;20025;-51
2022/07/23 00:40:30;;;;;;;11.00;4.30;;;;;;;23.66;100.00;101739.81;5072648;28;20029;-50
2022/07/23 00:42:56;;;;;;;;;;;;;;;22.54;100.00;101724.81;5077064;28;20096;-49
2022/07/23 00:45:22;;;;;;;9.10;3.93;;;;;;;22.17;100.00;101727.09;5076142;28;19939;-47
2022/07/23 00:47:48;;;;;;;;;;;;;;;22.85;100.00;101725.16;5077653;28;20048;-47
2022/07/23 00:50:14;;;;;;;9.63;4.60;;;;;;;23.03;100.00;101723.97;5074399;28;19942;-49
2022/07/23 00:52:40;;;;;;;7.45;3.72;;;;;;;23.29;100.00;101730.50;5073832;28;20037;-49
2022/07/23 00:55:08;;;;;;;10.50;3.93;;;;;;;22.82;100.00;101739.28;5074079;28;20089;-51
2022/07/23 00:57:36;;;;;;;13.40;3.87;;;;;;;22.84;100.00;101734.44;5073849;28;20028;-50
2022/07/23 01:00:04;;;;;;;8.67;4.80;;;;;;;22.65;100.00;101732.03;5076228;28;20033;-48
2022/07/23 01:02:30;;;;;;;9.67;4.60;;;;;;;22.61;100.00;101725.47;5076410;28;20039;-52
2022/07/23 01:04:56;;;;;;;7.88;4.50;;;;;;;22.35;100.00;101730.53;5074939;28;20024;-53
2022/07/23 01:07:21;;;;;;;9.30;4.18;;;;;;;22.36;100.00;101726.75;5074517;28;20032;-51
2022/07/23 01:09:47;;;;;;;9.30;5.03;;;;;;;22.06;100.00;101731.56;5077646;28;20028;-51
2022/07/23 01:12:13;;;;;;;7.37;3.93;;;;;;;22.00;100.00;101729.00;5072898;28;20043;-52
2022/07/23 01:14:39;;;;;;;7.47;4.45;;;;;;;21.90;100.00;101735.94;5078897;28;20029;-48
2022/07/23 01:17:05;;;;;;;10.63;4.38;;;;;;;22.00;100.00;101732.53;5057631;28;20036;-48
2022/07/23 01:19:31;;;;;;;7.35;4.70;;;;;;;22.01;100.00;101730.66;5073569;28;20033;-54
2022/07/23 01:21:58;;;;;;;12.80;4.30;;;;;;;22.33;100.00;101717.19;5073521;28;20037;-51
2022/07/23 01:24:23;;;;;;;8.20;4.60;;;;;;;23.13;100.00;101718.59;5077618;28;20033;-52
2022/07/23 01:27:02;;;;;;;12.27;4.90;;;;;;;21.75;100.00;101717.50;5071552;28;20089;-49
2022/07/23 01:29:27;;;;;;;;;;;;;;;21.22;100.00;101708.78;5071591;28;20270;-47
2022/07/23 01:31:54;;;;;;;10.40;5.00;;;;;;;21.56;100.00;101706.03;5075396;28;19942;-51
2022/07/23 01:34:19;;;;;;;9.95;4.90;;;;;;;21.86;100.00;101707.59;5076357;28;20402;-51
2022/07/23 01:36:46;;;;;;;;;;;;;;;21.58;100.00;101714.78;5071395;28;20101;-52
2022/07/23 01:39:15;;;;;;;10.33;4.47;;;;;;;21.68;100.00;101716.00;5072330;28;19995;-50
2022/07/23 01:41:41;;;;;;;6.72;4.43;;;;;;;21.31;100.00;101715.44;5086725;28;20273;-48
2022/07/23 01:44:06;;;;;;;6.85;4.93;;;;;;;21.51;100.00;101726.88;5081514;28;20048;-47
2022/07/23 01:46:32;;;;;;;9.30;5.38;;;;;;;21.34;100.00;101723.09;5082134;28;20139;-50
2022/07/23 01:48:58;;;;;;;7.93;5.22;;;;;;;21.51;100.00;101708.69;5079379;28;20025;-47
2022/07/23 01:51:59;;;;;;;10.93;4.63;;;;;;;22.26;100.00;101710.28;5083675;28;20033;-52
2022/07/23 01:54:32;;;;;;;8.77;4.60;;;;;;;22.25;100.00;101704.00;5076804;28;20282;-51
2022/07/23 01:56:59;;;;;;;13.83;5.10;;;;;;;22.13;100.00;101704.13;5080585;28;20296;-48
2022/07/23 01:59:25;;;;;;;10.40;5.03;;;;;;;22.00;100.00;101712.69;5077518;28;20278;-50
2022/07/23 02:01:51;;;;;;;;;;;;;;;21.87;100.00;101711.94;5079855;28;20025;-51
2022/07/23 02:04:18;;;;;;;7.97;4.40;;;;;;;21.80;100.00;101708.59;5081212;28;19919;-50
2022/07/23 02:06:43;;;;;;;;;;;;;;;21.85;100.00;101711.38;5083446;28;20262;-52
2022/07/23 02:09:09;;;;;;;7.83;4.50;;;;;;;21.75;100.00;101708.53;5077652;28;19915;-50
2022/07/23 02:11:34;;;;;;;14.90;5.30;;;;;;;21.79;100.00;101706.94;5080730;28;20037;-52
2022/07/23 02:14:00;;;;;;;13.00;5.95;;;;;;;21.78;100.00;101713.47;5080478;28;20346;-48
2022/07/23 02:16:25;;;;;;;9.85;4.68;;;;;;;21.82;100.00;101719.25;5083480;28;20080;-49
2022/07/23 02:18:51;;;;;;;8.32;5.00;;;;;;;21.99;100.00;101722.72;5080357;28;20040;-50
2022/07/23 02:21:16;;;;;;;6.95;4.35;;;;;;;21.69;100.00;101717.69;5080485;28;20044;-54
2022/07/23 02:23:41;;;;;;;9.67;4.40;;;;;;;21.57;100.00;101724.00;5083333;28;20035;-52
2022/07/23 02:26:07;;;;;;;6.43;3.90;;;;;;;21.95;100.00;101723.50;5079283;28;20277;-52
2022/07/23 02:28:32;;;;;;;5.35;4.10;;;;;;;21.57;100.00;101709.59;5083374;28;20032;-51
2022/07/23 02:30:58;;;;;;;8.73;4.25;;;;;;;21.65;100.00;101711.06;5081302;28;20029;-52
2022/07/23 02:33:24;;;;;;;13.20;5.00;;;;;;;21.49;100.00;101708.09;5084572;28;20043;-51
2022/07/23 02:35:49;;;;;;;11.95;4.45;;;;;;;21.47;100.00;101715.69;5082162;28;20269;-54
2022/07/23 02:38:16;;;;;;;7.37;4.57;;;;;;;21.01;100.00;101713.84;5086058;28;20040;-53
2022/07/23 02:40:42;;;;;;;11.23;4.05;;;;;;;21.08;100.00;101715.59;5089188;28;20281;-50
2022/07/23 02:43:07;;;;;;;8.90;4.90;;;;;;;21.04;100.00;101712.50;5081875;28;20108;-50
2022/07/23 02:45:33;;;;;;;7.60;4.30;;;;;;;20.99;100.00;101716.00;5089628;28;20024;-51
2022/07/23 02:47:58;;;;;;;9.13;5.57;;;;;;;20.96;100.00;101708.28;5084460;28;20033;-52
2022/07/23 02:50:25;;;;;;;10.73;5.17;;;;;;;20.91;100.00;101711.78;5082906;28;20037;-51
2022/07/23 02:52:54;;;;;;;10.60;4.57;;;;;;;20.86;100.00;101710.84;5084101;28;20273;-49
2022/07/23 02:55:19;;;;;;;9.97;4.67;;;;;;;21.03;100.00;101714.44;5069282;28;20300;-49
2022/07/23 02:57:45;;;;;;;11.55;5.55;;;;;;;20.99;100.00;101712.44;5086446;28;20111;-50
2022/07/23 03:00:11;;;;;;;8.75;4.70;;;;;;;20.89;100.00;101713.91;5081582;28;20024;-50
2022/07/23 03:02:38;;;;;;;10.90;4.07;;;;;;;20.85;100.00;101714.63;5087391;28;20059;-52
2022/07/23 03:05:04;;;;;;;6.63;4.20;;;;;;;20.77;100.00;101713.94;5079455;28;20270;-52
2022/07/23 03:07:29;;;;;;;13.63;4.53;;;;;;;21.00;100.00;101714.91;5086189;28;20088;-53
2022/07/23 03:09:55;;;;;;;10.45;4.60;;;;;;;21.05;100.00;101712.28;5082021;28;20056;-48
2022/07/23 03:12:21;;;;;;;10.23;4.43;;;;;;;20.97;100.00;101722.72;5086400;28;20155;-49
2022/07/23 03:14:49;;;;;;;10.37;4.60;;;;;;;20.93;100.00;101727.81;5085552;28;20277;-50
2022/07/23 03:17:14;;;;;;;20.67;5.03;;;;;;;20.66;100.00;101733.81;5087108;28;20280;-48
2022/07/23 03:19:40;;;;;;;10.27;4.68;;;;;;;20.63;100.00;101732.38;5081370;28;20040;-53
2022/07/23 03:22:06;;;;;;;;;;;;;;;20.41;100.00;101726.81;5077743;28;20029;-52
2022/07/23 03:27:17;;;;;;;12.97;4.67;;;;;;;20.39;100.00;101736.25;5078850;28;20281;-52
2022/07/23 03:29:43;;;;;;;16.90;5.13;;;;;;;20.35;100.00;101734.00;5076153;28;20270;-47
2022/07/23 03:32:08;;;;;;;9.37;4.80;;;;;;;20.96;100.00;101735.47;5079332;28;20029;-50
2022/07/23 03:34:34;;;;;;;10.13;4.88;;;;;;;20.91;100.00;101735.41;5080260;28;20029;-52
2022/07/23 03:36:59;;;;;;;9.63;5.00;;;;;;;20.49;100.00;101741.91;5078284;28;20277;-53
2022/07/23 03:39:25;;;;;;;11.35;4.60;;;;;;;20.51;100.00;101736.22;5077296;28;20344;-51
2022/07/23 03:41:50;;;;;;;25.80;5.18;;;;;;;20.58;100.00;101734.19;5083260;28;20036;-50
2022/07/23 03:44:16;;;;;;;9.07;4.50;;;;;;;21.50;100.00;101736.97;5077507;28;20048;-49
2022/07/23 03:46:41;;;;;;;10.80;5.32;;;;;;;20.94;100.00;101736.81;5077953;28;20036;-52
2022/07/23 03:49:07;;;;;;;11.93;5.07;;;;;;;20.93;100.00;101733.25;5079769;28;20045;-52
2022/07/23 03:51:33;;;;;;;8.73;5.17;;;;;;;21.67;100.00;101738.88;5081455;28;20416;-48
2022/07/23 03:53:59;;;;;;;9.32;4.97;;;;;;;20.69;100.00;101738.75;5079076;28;20277;-54
2022/07/23 03:56:25;;;;;;;8.13;4.80;;;;;;;20.76;100.00;101727.75;5079333;28;20036;-52
2022/07/23 03:58:51;;;;;;;14.55;5.00;;;;;;;20.33;100.00;101740.78;5079890;28;20032;-51
2022/07/23 04:01:16;;;;;;;19.17;8.57;;;;;;;20.42;100.00;101739.31;5077517;28;20028;-50
2022/07/23 04:03:42;;;;;;;27.58;10.05;;;;;;;20.45;100.00;101733.41;5083770;28;20146;-49
2022/07/23 04:06:08;;;;;;;23.73;8.07;;;;;;;20.15;100.00;101731.69;5078345;28;20037;-51
2022/07/23 04:08:34;;;;;;;11.00;5.77;;;;;;;20.06;100.00;101733.09;5076769;28;20274;-51
2022/07/23 04:11:02;;;;;;;15.80;8.77;;;;;;;20.58;100.00;101735.00;5077895;28;20262;-52
2022/07/23 04:13:28;;;;;;;15.10;6.90;;;;;;;20.41;100.00;101740.38;5081026;28;20289;-51
2022/07/23 04:15:53;;;;;;;23.77;11.57;;;;;;;20.28;100.00;101735.19;5082774;28;20089;-52
2022/07/23 04:18:21;;;;;;;24.40;13.15;;;;;;;20.53;100.00;101739.50;5081903;28;20036;-53
2022/07/23 04:20:54;;;;;;;19.50;9.90;;;;;;;20.17;100.00;101740.44;5081011;28;20035;-51
2022/07/23 04:23:21;;;;;;;15.53;9.13;;;;;;;20.07;100.00;101745.66;5075502;28;20276;-50
2022/07/23 04:25:47;;;;;;;24.45;12.43;;;;;;;20.27;100.00;101736.28;5082407;28;20265;-50
2022/07/23 04:28:12;;;;;;;28.75;15.80;;;;;;;20.35;100.00;101736.72;5083390;28;20100;-51
2022/07/23 04:30:38;;;;;;;28.00;13.32;;;;;;;20.55;100.00;101742.84;5084751;28;20051;-51
2022/07/23 04:33:06;;;;;;;18.10;7.93;;;;;;;20.88;100.00;101736.72;5080837;28;20291;-53
2022/07/23 04:35:33;;;;;;;16.37;9.50;;;;;;;20.95;100.00;101736.56;5081791;28;20285;-51
2022/07/23 04:38:09;;;;;;;17.52;9.63;;;;;;;20.92;100.00;101745.19;5081760;28;20261;-54
2022/07/23 04:40:36;;;;;;;22.83;8.90;;;;;;;21.01;100.00;101743.75;5084382;28;20039;-51
2022/07/23 04:43:02;;;;;;;18.65;8.20;;;;;;;21.06;100.00;101740.28;5083327;28;20293;-55
2022/07/23 04:45:29;;;;;;;17.02;9.02;;;;;;;21.16;100.00;101739.66;5083986;28;20032;-50
2022/07/23 04:47:55;;;;;;;13.63;7.25;;;;;;;20.80;100.00;101741.72;5077996;28;20037;-50
2022/07/23 04:50:21;;;;;;;;;;;;;;;20.61;100.00;101742.69;5081530;28;20147;-49
2022/07/23 04:52:48;;;;;;;17.77;10.03;;;;;;;20.68;100.00;101747.97;5082447;28;19918;-51
2022/07/23 04:55:15;;;;;;;12.03;6.93;;;;;;;21.12;100.00;101747.50;5082740;28;20310;-53
2022/07/23 04:57:40;;;;;;;15.03;8.80;;;;;;;21.29;100.00;101746.66;5082207;28;20298;-51
2022/07/23 05:00:08;;;;;;;15.27;8.88;;;;;;;20.89;100.00;101751.97;5080122;28;20261;-49
2022/07/23 05:02:33;;;;;;;14.33;8.03;;;;;;;20.84;100.00;101756.47;5078298;28;20033;-53
2022/07/23 05:04:59;;;;;;;15.82;6.18;;;;;;;20.77;100.00;101757.41;5083161;28;20265;-54
2022/07/23 05:07:25;;;;;;;17.13;7.85;;;;;;;20.92;100.00;101747.91;5071796;28;20041;-51
2022/07/23 05:09:51;;;;;;;15.40;7.32;;;;;;;20.98;100.00;101752.38;5073250;28;20037;-51
2022/07/23 05:12:16;;;;;;;12.93;7.30;;;;;;;21.51;100.00;101760.38;5076613;28;20037;-53
2022/07/23 05:14:43;;;;;;;13.07;6.20;;;;;;;21.67;100.00;101764.19;5073411;28;20282;-51
2022/07/23 05:17:08;;;;;;;10.60;5.73;;;;;;;21.71;100.00;101764.53;5075681;28;20297;-51
2022/07/23 05:19:34;;;;;;;9.73;6.13;;;;;;;21.78;100.00;101765.19;5077636;28;20033;-52
2022/07/23 05:22:00;;;;;;;16.53;6.80;;;;;;;21.84;100.00;101775.06;5075319;28;20044;-55
2022/07/23 05:24:26;;;;;;;17.83;9.77;;;;;;;21.87;100.00;101780.03;5080631;28;20362;-53
2022/07/23 05:26:52;;;;;;;;;;;;;;;22.03;100.00;101782.97;5083142;28;20088;-53
2022/07/23 05:29:18;;;;;;;14.53;7.10;;;;;;;22.12;100.00;101781.47;5083599;28;19966;-54
2022/07/23 05:31:44;;;;;;;16.90;7.55;;;;;;;22.33;100.00;101787.19;5084411;28;20020;-52
2022/07/23 05:34:10;;;;;;;13.07;6.65;;;;;;;22.21;100.00;101784.59;5082255;28;20036;-52
2022/07/23 05:36:36;;;;;;;;;;;;;;;22.29;100.00;101788.78;5082770;28;20032;-54
2022/07/23 05:39:03;;;;;;;15.30;6.67;;;;;;;22.05;100.00;101789.84;5085959;28;20423;-51
2022/07/23 05:41:31;;;;;;;12.13;5.77;;;;;;;22.38;100.00;101795.47;5082768;28;20277;-52
2022/07/23 05:43:58;;;;;;;13.95;5.93;;;;;;;21.72;100.00;101796.94;5086545;28;20049;-54
2022/07/23 05:46:26;;;;;;;12.73;5.53;;;;;;;22.09;100.00;101797.50;5083161;28;20035;-51
2022/07/23 05:48:56;;;;;;;17.27;5.87;;;;;;;22.12;100.00;101797.81;5085790;28;20289;-51
2022/07/23 05:51:45;;;;;;;10.90;5.80;;;;;;;22.48;100.00;101801.06;5084546;28;20056;-54
2022/07/23 05:54:10;;;;;;;9.48;4.63;;;;;;;22.28;100.00;101803.47;5080932;28;20029;-50
2022/07/23 05:56:38;;;;;;;7.03;4.70;;;;;;;22.57;100.00;101815.09;5076121;28;20036;-51
2022/07/23 05:59:04;;;;;;;9.75;5.07;;;;;;;22.59;100.00;101812.94;5073991;28;20037;-50
2022/07/23 06:01:29;;;;;;;15.02;4.78;;;;;;;22.57;100.00;101814.25;5076337;28;20056;-55
2022/07/23 06:04:03;;;;;;;8.47;4.83;;;;;;;22.60;100.00;101813.72;5073815;28;20374;-52
2022/07/23 06:06:34;;;;;;;10.37;5.40;;;;;;;22.70;100.00;101813.88;5076343;28;20028;-52
2022/07/23 06:08:59;;;;;;;9.45;4.40;;;;;;;22.58;100.00;101826.78;5078576;28;20056;-51
2022/07/23 06:11:26;;;;;;;8.48;4.60;;;;;;;22.70;100.00;101823.94;5083196;28;20051;-51
2022/07/23 06:13:52;;;;;;;10.82;4.03;;;;;;;22.56;100.00;101818.06;5083598;28;20021;-49
2022/07/23 06:16:20;;;;;;;11.43;4.10;;;;;;;22.60;100.00;101819.19;5071286;28;20048;-50
2022/07/23 06:18:45;;;;;;;8.82;4.47;;;;;;;22.56;100.00;101818.06;5085208;28;20033;-53
2022/07/23 06:21:11;;;;;;;9.93;3.97;;;;;;;22.67;100.00;101819.84;5083314;28;20028;-51
2022/07/23 06:23:37;;;;;;;18.00;4.07;;;;;;;23.09;100.00;101814.88;5075725;28;20138;-52
2022/07/23 06:26:02;;;;;;;4.57;3.53;;;;;;;22.85;100.00;101812.44;5076095;28;20033;-54
2022/07/23 06:28:28;;;;;;;10.52;3.35;;;;;;;22.84;100.00;101814.31;5077051;28;20029;-49
2022/07/23 06:30:54;;;;;;;5.13;2.90;;;;;;;23.39;100.00;101816.28;5077684;28;20394;-49
2022/07/23 06:33:19;;;;;;;5.43;2.83;;;;;;;23.58;100.00;101811.25;5078875;28;20052;-54
2022/07/23 06:35:45;;;;;;;8.18;3.58;;;;;;;23.00;100.00;101814.50;5082754;28;20029;-48
2022/07/23 06:38:10;;;;;;;39.10;17.80;;;;;;;22.94;100.00;101810.88;5081481;28;20097;-48
2022/07/23 06:40:36;;;;;;;10.40;4.10;;;;;;;22.92;100.00;101810.31;5085063;28;20037;-50
2022/07/23 06:43:01;;;;;;;13.67;7.30;;;;;;;23.44;100.00;101819.03;5080213;28;20037;-53
2022/07/23 06:45:27;;;;;;;12.13;4.88;;;;;;;23.39;100.00;101816.28;5080772;28;20274;-50
2022/07/23 06:47:53;;;;;;;14.45;6.75;;;;;;;23.24;100.00;101819.66;5082152;28;20037;-48
2022/07/23 06:50:18;;;;;;;15.57;6.22;;;;;;;23.10;100.00;101821.97;5074853;28;20045;-49
2022/07/23 06:52:45;;;;;;;8.25;4.63;;;;;;;23.19;100.00;101820.41;5072788;28;20040;-53
2022/07/23 06:55:10;;;;;;;3.63;2.28;;;;;;;23.46;100.00;101822.34;5077212;28;20049;-51
2022/07/23 06:57:37;;;;;;;8.27;3.03;;;;;;;23.50;100.00;101831.66;5077004;28;20039;-48
2022/07/23 07:00:06;;;;;;;8.87;3.63;;;;;;;23.62;100.00;101824.13;5079661;28;20032;-50
2022/07/23 07:02:31;;;;;;;;;;;;;;;23.34;100.00;101825.22;5083701;28;20043;-51
2022/07/23 07:04:56;;;;;;;31.43;15.77;;;;;;;24.34;100.00;101821.13;5081412;28;19912;-51
2022/07/23 07:07:22;;;;;;;17.05;8.23;;;;;;;24.34;100.00;101823.00;5086129;28;20032;-53
2022/07/23 07:09:48;;;;;;;14.18;6.57;;;;;;;24.53;100.00;101826.09;5080291;28;20052;-53
2022/07/23 07:12:13;;;;;;;14.30;5.97;;;;;;;24.72;100.00;101828.38;5079372;28;20044;-54
2022/07/23 07:14:38;;;;;;;11.52;4.65;;;;;;;24.30;100.00;101827.38;5084836;28;20045;-51
2022/07/23 07:17:04;;;;;;;10.63;4.20;;;;;;;24.50;100.00;101829.38;5080049;28;20089;-52
2022/07/23 07:19:30;;;;;;;14.90;5.03;;;;;;;24.48;100.00;101828.81;5075949;28;20044;-52
2022/07/23 07:21:55;;;;;;;8.90;4.05;;;;;;;24.42;100.00;101836.16;5079441;28;20134;-51
2022/07/23 07:24:21;;;;;;;13.70;7.05;;;;;;;24.51;100.00;101827.47;5077581;28;20030;-50
2022/07/23 07:26:46;;;;;;;12.35;4.47;;;;;;;24.54;100.00;101833.22;5078885;28;20033;-54
2022/07/23 07:29:12;;;;;;;12.75;5.68;;;;;;;24.57;100.00;101835.44;5080765;28;20039;-49
2022/07/23 07:31:37;;;;;;;6.00;2.33;;;;;;;24.56;100.00;101841.97;5080124;28;20086;-50
2022/07/23 07:34:03;;;;;;;11.20;5.55;;;;;;;24.42;100.00;101841.63;5080233;28;20045;-51
2022/07/23 07:36:28;;;;;;;9.93;3.72;;;;;;;24.82;100.00;101844.88;5078692;28;20092;-51
2022/07/23 07:38:54;;;;;;;10.20;2.95;;;;;;;25.00;100.00;101848.19;5081367;28;20045;-49
2022/07/23 07:41:23;;;;;;;8.82;2.95;;;;;;;24.72;100.00;101853.00;5082085;28;20064;-52
2022/07/23 07:43:50;;;;;;;10.40;3.23;;;;;;;24.46;100.00;101848.25;5083927;28;20053;-50
2022/07/23 07:46:16;;;;;;;;;;;;;;;24.56;100.00;101852.91;5074215;28;20075;-52
2022/07/23 07:48:42;;;;;;;5.13;2.53;;;;;;;24.55;100.00;101854.00;5077497;28;19913;-50
2022/07/23 07:51:07;;;;;;;8.63;3.30;;;;;;;24.60;100.00;101854.03;5075902;28;20036;-49
2022/07/23 07:53:33;;;;;;;8.25;2.83;;;;;;;24.34;100.00;101850.34;5079474;28;20045;-51
2022/07/23 07:55:58;;;;;;;6.28;2.47;;;;;;;24.33;100.00;101849.50;5081493;28;20036;-50
2022/07/23 07:58:24;;;;;;;8.85;2.95;;;;;;;24.56;100.00;101863.03;5076716;28;20033;-51
2022/07/23 08:00:49;;;;;;;3.55;1.90;;;;;;;24.52;100.00;101861.94;5075975;28;20036;-50
2022/07/23 08:03:15;;;;;;;5.88;2.88;;;;;;;24.77;100.00;101864.81;5078632;28;20052;-52
2022/07/23 08:05:40;;;;;;;6.32;2.75;;;;;;;25.07;100.00;101865.19;5081706;28;20032;-54
2022/07/23 08:08:06;;;;;;;4.50;3.03;;;;;;;25.21;100.00;101870.97;5079779;28;20047;-56
2022/07/23 08:10:32;;;;;;;;;;;;;;;25.10;100.00;101861.09;5083508;28;20037;-53
2022/07/23 08:13:00;;;;;;;7.93;2.20;;;;;;;25.04;100.00;101863.81;5067660;28;19944;-50
2022/07/23 08:15:27;;;;;;;8.00;3.40;;;;;;;24.85;100.00;101855.28;5067118;28;20040;-49
2022/07/23 08:17:53;;;;;;;12.47;3.77;;;;;;;24.64;100.00;101862.53;5063001;28;20041;-54
2022/07/23 08:20:20;;;;;;;3.83;2.00;;;;;;;25.42;100.00;101862.81;5068657;28;20032;-52
2022/07/23 08:23:02;;;;;;;5.37;2.97;;;;;;;25.81;100.00;101866.97;5062923;28;20106;-52
2022/07/23 08:25:36;;;;;;;5.87;1.97;;;;;;;25.63;100.00;101874.63;5066774;28;20029;-49
2022/07/23 08:28:04;;;;;;;4.03;1.87;;;;;;;25.25;100.00;101883.03;5066153;28;20057;-52
2022/07/23 08:30:30;;;;;;;4.67;2.40;;;;;;;25.44;100.00;101879.78;5070231;28;20036;-51
2022/07/23 08:33:00;;;;;;;4.73;2.37;;;;;;;25.68;100.00;101879.28;5075368;28;20041;-53
2022/07/23 08:35:30;;;;;;;6.57;2.93;;;;;;;24.97;100.00;101885.13;5072652;28;20041;-51
2022/07/23 08:37:57;;;;;;;9.60;4.77;;;;;;;24.89;100.00;101877.44;5071363;28;20029;-49
2022/07/23 08:40:25;;;;;;;8.83;5.37;;;;;;;25.16;100.00;101873.72;5072709;28;20049;-48
2022/07/23 08:42:51;;;;;;;8.10;3.50;;;;;;;25.01;100.00;101875.28;5072566;28;20029;-54
2022/07/23 08:45:22;;;;;;;14.55;5.82;;;;;;;26.00;100.00;101883.66;5071788;28;20100;-52
2022/07/23 08:47:49;;;;;;;8.20;4.17;;;;;;;26.23;100.00;101876.00;5069849;28;20053;-51
2022/07/23 08:50:15;;;;;;;12.47;5.87;;;;;;;26.40;100.00;101883.91;5073411;28;20060;-54
2022/07/23 08:52:42;;;;;;;16.83;7.33;;;;;;;26.48;100.00;101888.84;5075691;28;20033;-51
2022/07/23 08:55:08;;;;;;;11.27;6.57;;;;;;;26.79;100.00;101887.91;5072522;28;20033;-53
2022/07/23 08:57:34;;;;;;;7.03;3.42;;;;;;;26.93;100.00;101888.16;5072816;28;20043;-53
2022/07/23 09:00:00;;;;;;;14.40;5.43;;;;;;;26.48;100.00;101889.66;5074404;28;20037;-48
2022/07/23 09:02:25;;;;;;;4.80;2.85;;;;;;;27.41;100.00;101898.59;5079840;28;20028;-51
2022/07/23 09:04:51;;;;;;;11.25;6.03;;;;;;;27.22;100.00;101896.53;5081423;28;20090;-54
2022/07/23 09:07:16;;;;;;;5.25;2.90;;;;;;;27.34;100.00;101893.44;5079229;28;20036;-54
2022/07/23 09:09:42;;;;;;;8.13;2.90;;;;;;;27.75;100.00;101892.34;5079737;28;20072;-53
2022/07/23 09:12:10;;;;;;;6.63;2.80;;;;;;;27.12;100.00;101891.91;5081081;28;20049;-56
2022/07/23 09:14:37;;;;;;;5.43;2.70;;;;;;;27.78;100.00;101889.03;5081294;28;20044;-55
2022/07/23 09:17:10;;;;;;;34.03;17.10;;;;;;;27.62;100.00;101889.13;5074742;28;20053;-54
2022/07/23 09:19:36;;;;;;;5.57;3.67;;;;;;;27.05;100.00;101885.91;5073687;28;20100;-51
2022/07/23 09:22:17;;;;;;;21.88;10.50;;;;;;;27.22;100.00;101898.44;5074426;28;20039;-49
2022/07/23 09:25:11;;;;;;;20.70;10.60;;;;;;;27.24;100.00;101897.06;5069986;28;20041;-51
2022/07/23 09:28:04;;;;;;;28.00;14.80;;;;;;;27.82;100.00;101892.81;5071431;28;20029;-52
2022/07/23 09:30:31;;;;;;;6.03;2.70;;;;;;;27.50;100.00;101894.16;5073015;28;20056;-50
2022/07/23 09:33:15;;;;;;;9.13;5.37;;;;;;;28.16;100.00;101888.44;5072899;28;20033;-48
2022/07/23 09:35:53;;;;;;;11.10;5.20;;;;;;;29.24;100.00;101888.28;5071363;28;20042;-49
2022/07/23 09:38:21;;;;;;;28.00;12.90;;;;;;;29.59;95.80;101897.97;5069125;28;20029;-53
2022/07/23 09:41:04;;;;;;;35.63;15.63;;;;;;;30.27;89.60;101894.06;5074877;28;20031;-52
2022/07/23 09:43:30;;;;;;;8.45;4.40;;;;;;;29.79;93.09;101900.66;5067828;28;20049;-51
2022/07/23 09:46:17;;;;;;;10.48;5.88;;;;;;;30.28;89.42;101895.72;5075308;28;20040;-55
2022/07/23 09:48:42;;;;;;;7.32;3.50;;;;;;;30.89;85.90;101901.94;5074835;28;20044;-53
2022/07/23 09:51:07;;;;;;;8.77;4.10;;;;;;;31.61;80.50;101906.97;5071000;28;20030;-52
2022/07/23 09:53:33;;;;;;;16.63;8.65;;;;;;;32.02;75.39;101908.75;5073939;28;20052;-51
2022/07/23 09:56:00;;;;;;;6.38;2.65;;;;;;;31.43;75.24;101908.81;5069142;28;20040;-54
2022/07/23 09:58:28;;;;;;;12.77;6.60;;;;;;;32.01;74.90;101918.19;5075438;28;20029;-50
2022/07/23 10:00:55;;;;;;;10.70;6.20;;;;;;;32.48;71.20;101919.72;5073271;28;20037;-54
2022/07/23 10:03:23;;;;;;;2.55;1.60;;;;;;;32.54;64.47;101918.44;5076602;28;20144;-52
2022/07/23 10:06:10;;;;;;;12.85;8.52;;;;;;;33.75;62.96;101917.28;5075223;28;20097;-53
2022/07/23 10:08:59;;;;;;;14.48;7.43;;;;;;;34.20;57.79;101912.47;5075353;28;20070;-52
2022/07/23 10:11:45;;;;;;;18.65;11.75;;;;;;;34.74;58.69;101904.38;5073488;28;20044;-55
2022/07/23 10:14:27;;;;;;;20.98;12.13;;;;;;;34.58;58.11;101911.66;5073387;28;20036;-54
2022/07/23 10:16:56;;;;;;;18.40;9.43;;;;;;;34.80;56.15;101909.72;5077500;28;20029;-53
2022/07/23 10:19:22;;;;;;;21.20;13.20;;;;;;;34.85;56.01;101915.09;5074726;28;20037;-49
2022/07/23 10:21:52;;;;;;;22.60;13.50;;;;;;;35.02;52.23;101916.97;5072857;28;20036;-51
2022/07/23 10:24:23;;;;;;;5.57;2.60;;;;;;;35.15;52.33;101915.88;5071714;28;20036;-49
2022/07/23 10:27:37;;;;;;;9.52;4.35;;;;;;;35.70;50.42;101909.53;5075868;28;20078;-52
2022/07/23 10:30:16;;;;;;;4.57;2.38;;;;;;;36.58;46.32;101919.66;5073294;28;20033;-55
2022/07/23 10:33:17;;;;;;;8.02;4.45;;;;;;;37.30;44.87;101913.47;5075378;28;20059;-51
2022/07/23 10:35:48;;;;;;;15.02;7.68;;;;;;;36.82;43.89;101926.34;5072982;28;20060;-51
2022/07/23 10:38:30;;;;;;;7.78;3.17;;;;;;;37.56;41.07;101917.78;5072400;28;20029;-51
2022/07/23 10:41:04;;;;;;;7.18;2.50;;;;;;;37.39;42.07;101916.09;5072985;28;20047;-50
2022/07/23 10:43:30;;;;;;;63.53;33.50;;;;;;;37.17;45.33;101909.13;5071602;28;20060;-54
2022/07/23 10:46:39;;;;;;;24.00;13.88;;;;;;;37.24;45.48;101914.88;5072135;28;20033;-55
2022/07/23 10:49:22;;;;;;;18.75;10.23;;;;;;;37.98;38.52;101924.91;5077186;28;20032;-53
2022/07/23 10:52:20;;;;;;;15.18;7.30;;;;;;;38.44;37.34;101918.88;5070527;28;20059;-54
2022/07/23 10:55:16;;;;;;;39.08;21.15;;;;;;;38.42;41.12;101909.22;5075351;28;20068;-54
2022/07/23 10:57:49;;;;;;;;;;;;;;;38.76;39.04;101914.41;5075362;28;20025;-55
2022/07/23 11:00:19;;;;;;;34.50;20.38;;;;;;;38.87;42.03;101926.63;5078197;28;19923;-55
2022/07/23 11:02:47;;;;;;;8.00;4.57;;;;;;;38.95;35.53;101925.63;5077494;28;20108;-52
2022/07/23 11:05:15;;;;;;;9.27;5.60;;;;;;;38.85;36.32;101926.97;5078345;28;20407;-54
2022/07/23 11:08:07;;;;;;;5.00;2.22;;;;;;;39.36;35.03;101925.25;5079613;28;20036;-55
2022/07/23 11:10:37;;;;;;;13.95;6.55;;;;;;;39.09;36.20;101924.31;5076564;28;20036;-54
2022/07/23 11:13:21;;;;;;;22.25;12.55;;;;;;;39.14;34.76;101924.00;5079427;28;20110;-49
2022/07/23 11:16:04;;;;;;;11.38;5.95;;;;;;;39.96;34.69;101920.41;5080719;28;20043;-51
2022/07/23 11:18:39;;;;;;;12.13;6.93;;;;;;;40.13;35.34;101925.47;5077046;28;20033;-57
2022/07/23 11:21:23;;;;;;;23.08;13.80;;;;;;;41.17;31.72;101935.00;5081723;28;20067;-53
2022/07/23 11:23:58;;;;;;;7.03;3.67;;;;;;;41.66;30.19;101931.19;5079697;28;20048;-55
2022/07/23 11:26:49;;;;;;;11.00;6.30;;;;;;;41.35;30.13;101929.63;5076370;28;20050;-50